CES4356 ZSNJ-ZUCK
Flight info
| Callsign | CES4356 |
|---|---|
| Flight time | 2h 4m |
| Altitude | 36100 |
| Route | ESBAG R343 MADUK W51 LEGIV W164 ADGOL W50 XSH W80 IRPOG |
| Aircraft | A346/H-SDE2E3FGHIJ3J4J5M1RWXY/LB1D1 |
Departure
| Time | 2026-05-06 07:27 |
|---|---|
| Airport | Nanjing Lukou International Airport (ZSNJ) |
Arrival
| Time | 2026-05-06 09:32 |
|---|---|
| Airport | Chongqing Jiangbei International Airport (ZUCK) |
| Time | Latitude | Longitude | Altitude | Speed | Heading |
|---|---|---|---|---|---|
| 2026-05-06 07:24 | 31.72820 | 118.86975 | 57 ft | 26 kts | 58° |
| 2026-05-06 07:24 | 31.72914 | 118.87173 | 61 ft | 28 kts | 60° |
| 2026-05-06 07:25 | 31.73018 | 118.87372 | 60 ft | 29 kts | 58° |
| 2026-05-06 07:25 | 31.73127 | 118.87578 | 60 ft | 30 kts | 58° |
| 2026-05-06 07:25 | 31.73238 | 118.87790 | 59 ft | 27 kts | 58° |
| 2026-05-06 07:25 | 31.73211 | 118.87924 | 62 ft | 21 kts | 150° |
| 2026-05-06 07:26 | 31.73077 | 118.88004 | 61 ft | 22 kts | 172° |
| 2026-05-06 07:26 | 31.73008 | 118.87904 | 56 ft | 0 kts | 236° |
| 2026-05-06 07:26 | 31.73002 | 118.87893 | 56 ft | 13 kts | 236° |
| 2026-05-06 07:26 | 31.72813 | 118.87551 | 57 ft | 83 kts | 237° |
| 2026-05-06 07:27 | 31.72389 | 118.86761 | 60 ft | 142 kts | 238° |
| 2026-05-06 07:27 | 31.71764 | 118.85611 | 123 ft | 184 kts | 235° |
| 2026-05-06 07:27 | 31.71057 | 118.84311 | 686 ft | 182 kts | 236° |
| 2026-05-06 07:27 | 31.70384 | 118.83044 | 1325 ft | 181 kts | 235° |
| 2026-05-06 07:28 | 31.69695 | 118.81758 | 1698 ft | 195 kts | 234° |
| 2026-05-06 07:28 | 31.68936 | 118.80352 | 2010 ft | 210 kts | 235° |
| 2026-05-06 07:28 | 31.67644 | 118.77378 | 2672 ft | 242 kts | 254° |
| 2026-05-06 07:29 | 31.67462 | 118.75311 | 3061 ft | 261 kts | 266° |
| 2026-05-06 07:29 | 31.67450 | 118.73092 | 3770 ft | 267 kts | 268° |
| 2026-05-06 07:29 | 31.67452 | 118.70866 | 4633 ft | 270 kts | 268° |
| 2026-05-06 07:29 | 31.67446 | 118.68635 | 5486 ft | 271 kts | 267° |
| 2026-05-06 07:30 | 31.67429 | 118.66387 | 6386 ft | 272 kts | 266° |
| 2026-05-06 07:30 | 31.67403 | 118.64128 | 7290 ft | 273 kts | 266° |
| 2026-05-06 07:30 | 31.67373 | 118.61865 | 8179 ft | 274 kts | 267° |
| 2026-05-06 07:30 | 31.67337 | 118.59617 | 9019 ft | 276 kts | 267° |
| 2026-05-06 07:31 | 31.67300 | 118.57317 | 9862 ft | 278 kts | 268° |
| 2026-05-06 07:31 | 31.67265 | 118.55011 | 10522 ft | 284 kts | 268° |
| 2026-05-06 07:31 | 31.67228 | 118.52575 | 10919 ft | 301 kts | 268° |
| 2026-05-06 07:31 | 31.67188 | 118.50012 | 11239 ft | 319 kts | 268° |
| 2026-05-06 07:32 | 31.67145 | 118.47296 | 11553 ft | 336 kts | 268° |
| 2026-05-06 07:32 | 31.67102 | 118.44437 | 11866 ft | 353 kts | 268° |
| 2026-05-06 07:32 | 31.67053 | 118.41327 | 12170 ft | 370 kts | 268° |
| 2026-05-06 07:32 | 31.67004 | 118.38139 | 12693 ft | 379 kts | 268° |
| 2026-05-06 07:33 | 31.66954 | 118.34944 | 13397 ft | 383 kts | 267° |
| 2026-05-06 07:33 | 31.66904 | 118.31754 | 14037 ft | 387 kts | 267° |
| 2026-05-06 07:33 | 31.66850 | 118.28494 | 14659 ft | 390 kts | 267° |
| 2026-05-06 07:33 | 31.66795 | 118.25252 | 15300 ft | 392 kts | 267° |
| 2026-05-06 07:34 | 31.66739 | 118.21979 | 15957 ft | 394 kts | 267° |
| 2026-05-06 07:34 | 31.66668 | 118.18746 | 16582 ft | 396 kts | 266° |
| 2026-05-06 07:34 | 31.66450 | 118.15318 | 17241 ft | 398 kts | 263° |
| 2026-05-06 07:34 | 31.66145 | 118.12028 | 17870 ft | 401 kts | 263° |
| 2026-05-06 07:35 | 31.65823 | 118.08652 | 18419 ft | 404 kts | 263° |
| 2026-05-06 07:35 | 31.65501 | 118.05305 | 18942 ft | 406 kts | 263° |
| 2026-05-06 07:35 | 31.65178 | 118.01951 | 19466 ft | 408 kts | 263° |
| 2026-05-06 07:35 | 31.64854 | 117.98580 | 19993 ft | 411 kts | 263° |
| 2026-05-06 07:36 | 31.64526 | 117.95191 | 20521 ft | 413 kts | 263° |
| 2026-05-06 07:36 | 31.64195 | 117.91762 | 21044 ft | 416 kts | 263° |
| 2026-05-06 07:36 | 31.63862 | 117.88328 | 21557 ft | 418 kts | 263° |
| 2026-05-06 07:36 | 31.63530 | 117.84917 | 22063 ft | 421 kts | 263° |
| 2026-05-06 07:37 | 31.63189 | 117.81424 | 22586 ft | 423 kts | 263° |
| 2026-05-06 07:37 | 31.62848 | 117.77930 | 23081 ft | 426 kts | 263° |
| 2026-05-06 07:37 | 31.62503 | 117.74411 | 23569 ft | 429 kts | 263° |
| 2026-05-06 07:37 | 31.62154 | 117.70868 | 24012 ft | 431 kts | 263° |
| 2026-05-06 07:38 | 31.61803 | 117.67315 | 24444 ft | 433 kts | 263° |
| 2026-05-06 07:38 | 31.61449 | 117.63723 | 24907 ft | 435 kts | 263° |
| 2026-05-06 07:38 | 31.61433 | 117.60094 | 25312 ft | 440 kts | 275° |
| 2026-05-06 07:38 | 31.62119 | 117.56572 | 25745 ft | 445 kts | 287° |
| 2026-05-06 07:39 | 31.63480 | 117.53224 | 26194 ft | 451 kts | 299° |
| 2026-05-06 07:39 | 31.65301 | 117.50134 | 26686 ft | 454 kts | 302° |
| 2026-05-06 07:39 | 31.67183 | 117.47062 | 27139 ft | 456 kts | 302° |
| 2026-05-06 07:39 | 31.69069 | 117.43992 | 27568 ft | 459 kts | 302° |
| 2026-05-06 07:40 | 31.70937 | 117.40893 | 28018 ft | 460 kts | 299° |
| 2026-05-06 07:40 | 31.72394 | 117.37460 | 28416 ft | 458 kts | 288° |
| 2026-05-06 07:40 | 31.73214 | 117.33827 | 29017 ft | 452 kts | 277° |
| 2026-05-06 07:40 | 31.73435 | 117.30120 | 29733 ft | 447 kts | 268° |
| 2026-05-06 07:41 | 31.73083 | 117.26501 | 30344 ft | 444 kts | 258° |
| 2026-05-06 07:41 | 31.72162 | 117.22975 | 30864 ft | 444 kts | 249° |
| 2026-05-06 07:41 | 31.70694 | 117.19696 | 31321 ft | 447 kts | 239° |
| 2026-05-06 07:41 | 31.68844 | 117.16670 | 31799 ft | 448 kts | 236° |
| 2026-05-06 07:42 | 31.66953 | 117.13684 | 32280 ft | 448 kts | 236° |
| 2026-05-06 07:42 | 31.65054 | 117.10713 | 32738 ft | 448 kts | 236° |
| 2026-05-06 07:42 | 31.63152 | 117.07746 | 33235 ft | 448 kts | 236° |
| 2026-05-06 07:42 | 31.61251 | 117.04785 | 33703 ft | 447 kts | 236° |
| 2026-05-06 07:43 | 31.59327 | 117.01844 | 34121 ft | 447 kts | 235° |
| 2026-05-06 07:43 | 31.57415 | 116.98956 | 34504 ft | 447 kts | 235° |
| 2026-05-06 07:43 | 31.55476 | 116.96033 | 34839 ft | 449 kts | 235° |
| 2026-05-06 07:43 | 31.53518 | 116.93078 | 35146 ft | 450 kts | 235° |
| 2026-05-06 07:44 | 31.51567 | 116.90133 | 35453 ft | 451 kts | 235° |
| 2026-05-06 07:44 | 31.49611 | 116.87181 | 35776 ft | 452 kts | 235° |
| 2026-05-06 07:44 | 31.47638 | 116.84205 | 36040 ft | 453 kts | 236° |
| 2026-05-06 07:44 | 31.45686 | 116.81228 | 36053 ft | 454 kts | 236° |
| 2026-05-06 07:45 | 31.41823 | 116.75302 | 36066 ft | 453 kts | 236° |
| 2026-05-06 07:45 | 31.37933 | 116.69347 | 36074 ft | 453 kts | 236° |
| 2026-05-06 07:46 | 31.34041 | 116.63405 | 36077 ft | 452 kts | 236° |
| 2026-05-06 07:46 | 31.30148 | 116.57471 | 36076 ft | 453 kts | 236° |
| 2026-05-06 07:47 | 31.26256 | 116.51543 | 36100 ft | 452 kts | 235° |
| 2026-05-06 07:47 | 31.22386 | 116.45661 | 36087 ft | 452 kts | 235° |
| 2026-05-06 07:48 | 31.18498 | 116.39760 | 36100 ft | 452 kts | 235° |
| 2026-05-06 07:48 | 31.14596 | 116.33844 | 36100 ft | 452 kts | 235° |
| 2026-05-06 07:49 | 31.10678 | 116.27915 | 36108 ft | 452 kts | 235° |
| 2026-05-06 07:49 | 31.06801 | 116.22056 | 36091 ft | 452 kts | 235° |
| 2026-05-06 07:50 | 31.02901 | 116.16166 | 36112 ft | 451 kts | 236° |
| 2026-05-06 07:50 | 30.99005 | 116.10287 | 36104 ft | 451 kts | 236° |
| 2026-05-06 07:51 | 30.95105 | 116.04415 | 36104 ft | 451 kts | 236° |
| 2026-05-06 07:51 | 30.91205 | 115.98552 | 36103 ft | 451 kts | 236° |
| 2026-05-06 07:52 | 30.87322 | 115.92727 | 36102 ft | 451 kts | 236° |
| 2026-05-06 07:52 | 30.83428 | 115.86869 | 36098 ft | 450 kts | 236° |
| 2026-05-06 07:53 | 30.79550 | 115.80989 | 36092 ft | 450 kts | 236° |
| 2026-05-06 07:53 | 30.75685 | 115.75125 | 36090 ft | 449 kts | 236° |
| 2026-05-06 07:54 | 30.71840 | 115.69303 | 36085 ft | 449 kts | 236° |
| 2026-05-06 07:54 | 30.67948 | 115.63419 | 36080 ft | 449 kts | 236° |
| 2026-05-06 07:55 | 30.64085 | 115.57588 | 36078 ft | 449 kts | 236° |
| 2026-05-06 07:55 | 30.60210 | 115.51747 | 36075 ft | 449 kts | 236° |
| 2026-05-06 07:56 | 30.56351 | 115.45940 | 36071 ft | 449 kts | 236° |
| 2026-05-06 07:56 | 30.52470 | 115.40110 | 36069 ft | 449 kts | 236° |
| 2026-05-06 07:57 | 30.48946 | 115.34566 | 36061 ft | 446 kts | 242° |
| 2026-05-06 07:57 | 30.46253 | 115.28017 | 36053 ft | 442 kts | 253° |
| 2026-05-06 07:58 | 30.44882 | 115.21008 | 36051 ft | 439 kts | 265° |
| 2026-05-06 07:58 | 30.44859 | 115.13881 | 36044 ft | 438 kts | 276° |
| 2026-05-06 07:59 | 30.45559 | 115.06757 | 36047 ft | 438 kts | 276° |
| 2026-05-06 07:59 | 30.46293 | 114.99644 | 36046 ft | 438 kts | 276° |
| 2026-05-06 08:00 | 30.47028 | 114.92505 | 36044 ft | 438 kts | 276° |
| 2026-05-06 08:00 | 30.47756 | 114.85391 | 36041 ft | 438 kts | 276° |
| 2026-05-06 08:01 | 30.48476 | 114.78319 | 36046 ft | 438 kts | 276° |
| 2026-05-06 08:01 | 30.49201 | 114.71156 | 36045 ft | 439 kts | 275° |
| 2026-05-06 08:02 | 30.49921 | 114.63996 | 36044 ft | 439 kts | 275° |
| 2026-05-06 08:02 | 30.50637 | 114.56828 | 36036 ft | 439 kts | 275° |
| 2026-05-06 08:03 | 30.51343 | 114.49732 | 36041 ft | 440 kts | 275° |
| 2026-05-06 08:03 | 30.52044 | 114.42636 | 36037 ft | 441 kts | 275° |
| 2026-05-06 08:04 | 30.52742 | 114.35543 | 36036 ft | 442 kts | 275° |
| 2026-05-06 08:04 | 30.53436 | 114.28446 | 36026 ft | 443 kts | 275° |
| 2026-05-06 08:05 | 30.54126 | 114.21333 | 36026 ft | 444 kts | 275° |
| 2026-05-06 08:05 | 30.54796 | 114.14257 | 36020 ft | 445 kts | 274° |
| 2026-05-06 08:06 | 30.55481 | 114.07099 | 36017 ft | 446 kts | 275° |
| 2026-05-06 08:06 | 30.56177 | 113.99928 | 36017 ft | 446 kts | 275° |
| 2026-05-06 08:07 | 30.56844 | 113.92753 | 36022 ft | 447 kts | 275° |
| 2026-05-06 08:07 | 30.57443 | 113.85614 | 36018 ft | 447 kts | 272° |
| 2026-05-06 08:08 | 30.57530 | 113.78382 | 36018 ft | 446 kts | 267° |
| 2026-05-06 08:08 | 30.57275 | 113.71171 | 36017 ft | 447 kts | 267° |
| 2026-05-06 08:09 | 30.57006 | 113.63943 | 36016 ft | 447 kts | 267° |
| 2026-05-06 08:09 | 30.56735 | 113.56776 | 36012 ft | 447 kts | 267° |
| 2026-05-06 08:10 | 30.56458 | 113.49562 | 36006 ft | 447 kts | 267° |
| 2026-05-06 08:10 | 30.56178 | 113.42352 | 36007 ft | 446 kts | 267° |
| 2026-05-06 08:11 | 30.55893 | 113.35146 | 36007 ft | 446 kts | 267° |
| 2026-05-06 08:11 | 30.55608 | 113.28000 | 36002 ft | 446 kts | 267° |
| 2026-05-06 08:12 | 30.55316 | 113.20804 | 36000 ft | 445 kts | 267° |
| 2026-05-06 08:12 | 30.55020 | 113.13621 | 35996 ft | 445 kts | 267° |
| 2026-05-06 08:13 | 30.54724 | 113.06451 | 35997 ft | 444 kts | 267° |
| 2026-05-06 08:13 | 30.54425 | 112.99319 | 35998 ft | 444 kts | 267° |
| 2026-05-06 08:14 | 30.54120 | 112.92165 | 35995 ft | 443 kts | 267° |
| 2026-05-06 08:14 | 30.53812 | 112.85015 | 35986 ft | 443 kts | 267° |
| 2026-05-06 08:15 | 30.53501 | 112.77864 | 35988 ft | 442 kts | 267° |
| 2026-05-06 08:15 | 30.53189 | 112.70780 | 35982 ft | 442 kts | 267° |
| 2026-05-06 08:16 | 30.52866 | 112.63566 | 35980 ft | 441 kts | 267° |
| 2026-05-06 08:16 | 30.52540 | 112.56350 | 35978 ft | 441 kts | 267° |
| 2026-05-06 08:17 | 30.52209 | 112.49122 | 35973 ft | 441 kts | 267° |
| 2026-05-06 08:17 | 30.51877 | 112.41946 | 35972 ft | 441 kts | 267° |
| 2026-05-06 08:18 | 30.51538 | 112.34722 | 35970 ft | 441 kts | 267° |
| 2026-05-06 08:18 | 30.51198 | 112.27543 | 35970 ft | 441 kts | 267° |
| 2026-05-06 08:19 | 30.50852 | 112.20340 | 35966 ft | 440 kts | 267° |
| 2026-05-06 08:19 | 30.50500 | 112.13091 | 35962 ft | 440 kts | 267° |
| 2026-05-06 08:20 | 30.50146 | 112.05891 | 35963 ft | 440 kts | 267° |
| 2026-05-06 08:20 | 30.49789 | 111.98692 | 35961 ft | 440 kts | 267° |
| 2026-05-06 08:21 | 30.49427 | 111.91477 | 35959 ft | 439 kts | 267° |
| 2026-05-06 08:21 | 30.49065 | 111.84355 | 35956 ft | 439 kts | 267° |
| 2026-05-06 08:22 | 30.48697 | 111.77180 | 35958 ft | 439 kts | 267° |
| 2026-05-06 08:22 | 30.48323 | 111.69994 | 35955 ft | 439 kts | 267° |
| 2026-05-06 08:23 | 30.47942 | 111.62813 | 35949 ft | 438 kts | 266° |
| 2026-05-06 08:23 | 30.47556 | 111.55674 | 35943 ft | 437 kts | 266° |
| 2026-05-06 08:24 | 30.47090 | 111.48524 | 35942 ft | 437 kts | 264° |
| 2026-05-06 08:24 | 30.46192 | 111.41425 | 35941 ft | 436 kts | 262° |
| 2026-05-06 08:25 | 30.45231 | 111.34371 | 35942 ft | 436 kts | 262° |
| 2026-05-06 08:25 | 30.44259 | 111.27350 | 35948 ft | 436 kts | 262° |
| 2026-05-06 08:26 | 30.43282 | 111.20326 | 35952 ft | 435 kts | 262° |
| 2026-05-06 08:26 | 30.42298 | 111.13288 | 35958 ft | 434 kts | 262° |
| 2026-05-06 08:27 | 30.41313 | 111.06264 | 35959 ft | 434 kts | 262° |
| 2026-05-06 08:27 | 30.40332 | 110.99295 | 35971 ft | 434 kts | 262° |
| 2026-05-06 08:28 | 30.39340 | 110.92284 | 35978 ft | 433 kts | 262° |
| 2026-05-06 08:28 | 30.38341 | 110.85242 | 35983 ft | 433 kts | 262° |
| 2026-05-06 08:29 | 30.37345 | 110.78250 | 35991 ft | 432 kts | 262° |
| 2026-05-06 08:29 | 30.36357 | 110.71355 | 35997 ft | 431 kts | 262° |
| 2026-05-06 08:30 | 30.35359 | 110.64407 | 35991 ft | 430 kts | 262° |
| 2026-05-06 08:30 | 30.34349 | 110.57425 | 36007 ft | 431 kts | 261° |
| 2026-05-06 08:31 | 30.33336 | 110.50454 | 36005 ft | 431 kts | 261° |
| 2026-05-06 08:31 | 30.32343 | 110.43616 | 36006 ft | 430 kts | 262° |
| 2026-05-06 08:32 | 30.31328 | 110.36627 | 36013 ft | 431 kts | 261° |
| 2026-05-06 08:32 | 30.30314 | 110.29697 | 36014 ft | 430 kts | 261° |
| 2026-05-06 08:33 | 30.29296 | 110.22764 | 36022 ft | 430 kts | 261° |
| 2026-05-06 08:33 | 30.28273 | 110.15825 | 36024 ft | 431 kts | 261° |
| 2026-05-06 08:34 | 30.26739 | 110.05484 | 36024 ft | 429 kts | 261° |
| 2026-05-06 08:35 | 30.25708 | 109.98554 | 36017 ft | 429 kts | 261° |
| 2026-05-06 08:35 | 30.24673 | 109.91636 | 36015 ft | 429 kts | 261° |
| 2026-05-06 08:36 | 30.23633 | 109.84722 | 36020 ft | 429 kts | 261° |
| 2026-05-06 08:36 | 30.22770 | 109.78990 | 36017 ft | 429 kts | 261° |
| 2026-05-06 08:37 | 30.21728 | 109.72090 | 36018 ft | 429 kts | 261° |
| 2026-05-06 08:37 | 30.20681 | 109.65207 | 36013 ft | 429 kts | 261° |
| 2026-05-06 08:38 | 30.19336 | 109.58230 | 35998 ft | 432 kts | 256° |
| 2026-05-06 08:38 | 30.17595 | 109.51537 | 36012 ft | 431 kts | 255° |
| 2026-05-06 08:39 | 30.15812 | 109.44793 | 36008 ft | 430 kts | 255° |
| 2026-05-06 08:39 | 30.14028 | 109.38068 | 36007 ft | 431 kts | 254° |
| 2026-05-06 08:40 | 30.12257 | 109.31415 | 36012 ft | 433 kts | 254° |
| 2026-05-06 08:40 | 30.10449 | 109.24648 | 36011 ft | 431 kts | 254° |
| 2026-05-06 08:41 | 30.08650 | 109.17929 | 36019 ft | 431 kts | 254° |
| 2026-05-06 08:41 | 30.06843 | 109.11220 | 36017 ft | 431 kts | 254° |
| 2026-05-06 08:42 | 30.05036 | 109.04523 | 36021 ft | 431 kts | 254° |
| 2026-05-06 08:42 | 30.03242 | 108.97887 | 36012 ft | 431 kts | 254° |
| 2026-05-06 08:43 | 30.01456 | 108.91155 | 36000 ft | 433 kts | 255° |
| 2026-05-06 08:43 | 29.99678 | 108.84379 | 36017 ft | 432 kts | 255° |
| 2026-05-06 08:44 | 29.97908 | 108.77662 | 36011 ft | 431 kts | 254° |
| 2026-05-06 08:44 | 29.96142 | 108.70980 | 36011 ft | 430 kts | 254° |
| 2026-05-06 08:44 | 29.95275 | 108.67704 | 36007 ft | 416 kts | 254° |
| 2026-05-06 08:45 | 29.94445 | 108.64576 | 36003 ft | 401 kts | 254° |
| 2026-05-06 08:45 | 29.93637 | 108.61529 | 36006 ft | 386 kts | 254° |
| 2026-05-06 08:45 | 29.92854 | 108.58579 | 36003 ft | 372 kts | 254° |
| 2026-05-06 08:46 | 29.91339 | 108.52869 | 36010 ft | 368 kts | 254° |
| 2026-05-06 08:46 | 29.89824 | 108.47177 | 36016 ft | 368 kts | 254° |
| 2026-05-06 08:47 | 29.88406 | 108.41437 | 35984 ft | 368 kts | 265° |
| 2026-05-06 08:47 | 29.88553 | 108.38513 | 36002 ft | 371 kts | 281° |
| 2026-05-06 08:47 | 29.89506 | 108.35663 | 36008 ft | 379 kts | 296° |
| 2026-05-06 08:47 | 29.91169 | 108.33225 | 36009 ft | 389 kts | 312° |
| 2026-05-06 08:48 | 29.93454 | 108.31428 | 36004 ft | 404 kts | 329° |
| 2026-05-06 08:48 | 29.96237 | 108.30504 | 36007 ft | 421 kts | 347° |
| 2026-05-06 08:48 | 29.99245 | 108.30689 | 36004 ft | 440 kts | 8° |
| 2026-05-06 08:48 | 30.02136 | 108.32112 | 36008 ft | 459 kts | 29° |
| 2026-05-06 08:49 | 30.04508 | 108.34704 | 36008 ft | 473 kts | 52° |
| 2026-05-06 08:49 | 30.06012 | 108.38141 | 36015 ft | 479 kts | 71° |
| 2026-05-06 08:49 | 30.06891 | 108.41854 | 36025 ft | 481 kts | 76° |
| 2026-05-06 08:50 | 30.08518 | 108.49445 | 36022 ft | 482 kts | 73° |
| 2026-05-06 08:50 | 30.09187 | 108.53285 | 35986 ft | 481 kts | 89° |
| 2026-05-06 08:50 | 30.08795 | 108.57118 | 35998 ft | 476 kts | 112° |
| 2026-05-06 08:50 | 30.07313 | 108.60513 | 36009 ft | 464 kts | 135° |
| 2026-05-06 08:51 | 30.04982 | 108.63002 | 36013 ft | 446 kts | 157° |
| 2026-05-06 08:51 | 30.02158 | 108.64292 | 36016 ft | 426 kts | 180° |
| 2026-05-06 08:51 | 30.00222 | 108.64416 | 36017 ft | 412 kts | 194° |
| 2026-05-06 08:51 | 29.96665 | 108.63064 | 36029 ft | 390 kts | 218° |
| 2026-05-06 08:52 | 29.94551 | 108.61215 | 36022 ft | 380 kts | 231° |
| 2026-05-06 08:52 | 29.92926 | 108.58819 | 36014 ft | 373 kts | 244° |
| 2026-05-06 08:52 | 29.91925 | 108.56062 | 36020 ft | 369 kts | 256° |
| 2026-05-06 08:53 | 29.90550 | 108.50302 | 36012 ft | 368 kts | 255° |
| 2026-05-06 08:53 | 29.89350 | 108.45554 | 36016 ft | 367 kts | 255° |
| 2026-05-06 08:54 | 29.88383 | 108.39765 | 35989 ft | 369 kts | 275° |
| 2026-05-06 08:54 | 29.89359 | 108.35964 | 36009 ft | 377 kts | 295° |
| 2026-05-06 08:54 | 29.90931 | 108.33485 | 36017 ft | 388 kts | 310° |
| 2026-05-06 08:54 | 29.92373 | 108.32121 | 36012 ft | 397 kts | 321° |
| 2026-05-06 08:55 | 29.94900 | 108.30798 | 36008 ft | 413 kts | 339° |
| 2026-05-06 08:55 | 29.97832 | 108.30446 | 36004 ft | 431 kts | 358° |
| 2026-05-06 08:55 | 30.00819 | 108.31283 | 36011 ft | 451 kts | 19° |
| 2026-05-06 08:55 | 30.03477 | 108.33346 | 36016 ft | 467 kts | 41° |
| 2026-05-06 08:56 | 30.05404 | 108.36423 | 35995 ft | 477 kts | 64° |
| 2026-05-06 08:56 | 30.07302 | 108.43864 | 36025 ft | 481 kts | 76° |
| 2026-05-06 08:57 | 30.08954 | 108.51322 | 36012 ft | 481 kts | 78° |
| 2026-05-06 08:57 | 30.09145 | 108.55255 | 35986 ft | 478 kts | 101° |
| 2026-05-06 08:57 | 30.08184 | 108.58904 | 36005 ft | 469 kts | 123° |
| 2026-05-06 08:57 | 30.06236 | 108.61877 | 36011 ft | 454 kts | 146° |
| 2026-05-06 08:58 | 30.03610 | 108.63775 | 36019 ft | 435 kts | 168° |
| 2026-05-06 08:58 | 30.00698 | 108.64387 | 36016 ft | 414 kts | 191° |
| 2026-05-06 08:58 | 29.97950 | 108.63714 | 36028 ft | 396 kts | 210° |
| 2026-05-06 08:58 | 29.95572 | 108.62173 | 36027 ft | 384 kts | 224° |
| 2026-05-06 08:59 | 29.93690 | 108.60063 | 36017 ft | 376 kts | 237° |
| 2026-05-06 08:59 | 29.92359 | 108.57477 | 36014 ft | 370 kts | 251° |
| 2026-05-06 08:59 | 29.91592 | 108.54614 | 36026 ft | 368 kts | 256° |
| 2026-05-06 09:00 | 29.90194 | 108.48865 | 36015 ft | 367 kts | 255° |
| 2026-05-06 09:00 | 29.88732 | 108.43155 | 36003 ft | 367 kts | 255° |
| 2026-05-06 09:01 | 29.87190 | 108.37308 | 36015 ft | 384 kts | 254° |
| 2026-05-06 09:01 | 29.85570 | 108.31231 | 36030 ft | 404 kts | 254° |
| 2026-05-06 09:02 | 29.83864 | 108.24865 | 35863 ft | 414 kts | 254° |
| 2026-05-06 09:02 | 29.83005 | 108.21667 | 35219 ft | 417 kts | 254° |
| 2026-05-06 09:02 | 29.82124 | 108.18391 | 34251 ft | 427 kts | 254° |
| 2026-05-06 09:02 | 29.81233 | 108.15085 | 33550 ft | 429 kts | 254° |
| 2026-05-06 09:03 | 29.80335 | 108.11756 | 32817 ft | 430 kts | 254° |
| 2026-05-06 09:03 | 29.79450 | 108.08480 | 32036 ft | 432 kts | 254° |
| 2026-05-06 09:03 | 29.78538 | 108.05110 | 31178 ft | 436 kts | 254° |
| 2026-05-06 09:03 | 29.77624 | 108.01739 | 30353 ft | 441 kts | 254° |
| 2026-05-06 09:04 | 29.76703 | 107.98315 | 29456 ft | 445 kts | 255° |
| 2026-05-06 09:04 | 29.75927 | 107.94824 | 28487 ft | 448 kts | 259° |
| 2026-05-06 09:04 | 29.75361 | 107.91272 | 27573 ft | 450 kts | 262° |
| 2026-05-06 09:04 | 29.75014 | 107.87652 | 27006 ft | 445 kts | 266° |
| 2026-05-06 09:05 | 29.74784 | 107.84112 | 26503 ft | 438 kts | 266° |
| 2026-05-06 09:05 | 29.74571 | 107.80669 | 25869 ft | 436 kts | 266° |
| 2026-05-06 09:05 | 29.74355 | 107.77131 | 25260 ft | 433 kts | 266° |
| 2026-05-06 09:05 | 29.74143 | 107.73658 | 24686 ft | 430 kts | 266° |
| 2026-05-06 09:06 | 29.73930 | 107.70205 | 24123 ft | 427 kts | 266° |
| 2026-05-06 09:06 | 29.73718 | 107.66790 | 23590 ft | 424 kts | 266° |
| 2026-05-06 09:06 | 29.73508 | 107.63396 | 23069 ft | 420 kts | 266° |
| 2026-05-06 09:06 | 29.73300 | 107.60032 | 22399 ft | 418 kts | 266° |
| 2026-05-06 09:07 | 29.73090 | 107.56669 | 21718 ft | 417 kts | 266° |
| 2026-05-06 09:07 | 29.72880 | 107.53324 | 21104 ft | 414 kts | 266° |
| 2026-05-06 09:07 | 29.72673 | 107.50037 | 20493 ft | 413 kts | 265° |
| 2026-05-06 09:07 | 29.72462 | 107.46723 | 19981 ft | 410 kts | 265° |
| 2026-05-06 09:08 | 29.72263 | 107.43579 | 19772 ft | 412 kts | 265° |
| 2026-05-06 09:08 | 29.72054 | 107.40268 | 19763 ft | 413 kts | 265° |
| 2026-05-06 09:08 | 29.71841 | 107.36933 | 19762 ft | 414 kts | 265° |
| 2026-05-06 09:08 | 29.71626 | 107.33594 | 19758 ft | 414 kts | 265° |
| 2026-05-06 09:09 | 29.71412 | 107.30270 | 19753 ft | 414 kts | 265° |
| 2026-05-06 09:09 | 29.71197 | 107.26943 | 19759 ft | 414 kts | 265° |
| 2026-05-06 09:09 | 29.70981 | 107.23616 | 19757 ft | 414 kts | 265° |
| 2026-05-06 09:09 | 29.70766 | 107.20324 | 19741 ft | 414 kts | 265° |
| 2026-05-06 09:10 | 29.70547 | 107.16990 | 19752 ft | 414 kts | 265° |
| 2026-05-06 09:10 | 29.70329 | 107.13663 | 19759 ft | 414 kts | 265° |
| 2026-05-06 09:10 | 29.70118 | 107.10456 | 19745 ft | 399 kts | 265° |
| 2026-05-06 09:10 | 29.69904 | 107.07217 | 19604 ft | 386 kts | 265° |
| 2026-05-06 09:11 | 29.69699 | 107.04119 | 19412 ft | 375 kts | 265° |
| 2026-05-06 09:11 | 29.69500 | 107.01126 | 19104 ft | 364 kts | 265° |
| 2026-05-06 09:11 | 29.69307 | 106.98242 | 18908 ft | 351 kts | 265° |
| 2026-05-06 09:11 | 29.69124 | 106.95520 | 18693 ft | 338 kts | 265° |
| 2026-05-06 09:12 | 29.68941 | 106.92800 | 18486 ft | 326 kts | 265° |
| 2026-05-06 09:12 | 29.68768 | 106.90237 | 18294 ft | 314 kts | 265° |
| 2026-05-06 09:12 | 29.68811 | 106.87728 | 18027 ft | 307 kts | 278° |
| 2026-05-06 09:12 | 29.69304 | 106.85317 | 17551 ft | 304 kts | 285° |
| 2026-05-06 09:13 | 29.69929 | 106.82981 | 16978 ft | 301 kts | 286° |
| 2026-05-06 09:13 | 29.70347 | 106.80642 | 16686 ft | 292 kts | 266° |
| 2026-05-06 09:13 | 29.69757 | 106.78435 | 16315 ft | 288 kts | 234° |
| 2026-05-06 09:13 | 29.68227 | 106.76953 | 15897 ft | 291 kts | 203° |
| 2026-05-06 09:14 | 29.66244 | 106.76296 | 15561 ft | 290 kts | 196° |
| 2026-05-06 09:14 | 29.64301 | 106.75719 | 15204 ft | 289 kts | 197° |
| 2026-05-06 09:14 | 29.62352 | 106.75097 | 14858 ft | 287 kts | 198° |
| 2026-05-06 09:14 | 29.60417 | 106.74451 | 14507 ft | 286 kts | 199° |
| 2026-05-06 09:15 | 29.58488 | 106.73790 | 14169 ft | 284 kts | 199° |
| 2026-05-06 09:15 | 29.56587 | 106.73133 | 13787 ft | 282 kts | 199° |
| 2026-05-06 09:15 | 29.54708 | 106.72482 | 13503 ft | 280 kts | 199° |
| 2026-05-06 09:15 | 29.52813 | 106.71824 | 13482 ft | 281 kts | 199° |
| 2026-05-06 09:16 | 29.50918 | 106.71167 | 13470 ft | 281 kts | 199° |
| 2026-05-06 09:16 | 29.49058 | 106.70524 | 13471 ft | 281 kts | 199° |
| 2026-05-06 09:16 | 29.47164 | 106.69869 | 13465 ft | 281 kts | 199° |
| 2026-05-06 09:16 | 29.45265 | 106.69214 | 13464 ft | 283 kts | 199° |
| 2026-05-06 09:17 | 29.43331 | 106.68554 | 13484 ft | 296 kts | 199° |
| 2026-05-06 09:17 | 29.41220 | 106.67828 | 12924 ft | 325 kts | 199° |
| 2026-05-06 09:17 | 29.38998 | 106.67056 | 11814 ft | 336 kts | 199° |
| 2026-05-06 09:17 | 29.36781 | 106.66280 | 11220 ft | 328 kts | 199° |
| 2026-05-06 09:18 | 29.34573 | 106.65507 | 10456 ft | 324 kts | 199° |
| 2026-05-06 09:18 | 29.32435 | 106.64757 | 9733 ft | 321 kts | 199° |
| 2026-05-06 09:18 | 29.30291 | 106.64006 | 8964 ft | 318 kts | 199° |
| 2026-05-06 09:18 | 29.28155 | 106.63259 | 8206 ft | 315 kts | 199° |
| 2026-05-06 09:19 | 29.26057 | 106.62523 | 7493 ft | 311 kts | 199° |
| 2026-05-06 09:19 | 29.23973 | 106.61786 | 6847 ft | 307 kts | 199° |
| 2026-05-06 09:19 | 29.21918 | 106.61062 | 6171 ft | 303 kts | 199° |
| 2026-05-06 09:19 | 29.19980 | 106.60074 | 5342 ft | 301 kts | 221° |
| 2026-05-06 09:20 | 29.18746 | 106.58183 | 4878 ft | 286 kts | 250° |
| 2026-05-06 09:20 | 29.18318 | 106.56063 | 4768 ft | 261 kts | 270° |
| 2026-05-06 09:20 | 29.18509 | 106.54105 | 4761 ft | 237 kts | 288° |
| 2026-05-06 09:20 | 29.19169 | 106.52440 | 4728 ft | 214 kts | 305° |
| 2026-05-06 09:21 | 29.20107 | 106.51217 | 4737 ft | 194 kts | 320° |
| 2026-05-06 09:21 | 29.21189 | 106.50394 | 4719 ft | 189 kts | 334° |
| 2026-05-06 09:21 | 29.22472 | 106.49889 | 4772 ft | 192 kts | 348° |
| 2026-05-06 09:21 | 29.23817 | 106.49787 | 4761 ft | 195 kts | 3° |
| 2026-05-06 09:22 | 29.25181 | 106.50010 | 4772 ft | 196 kts | 7° |
| 2026-05-06 09:22 | 29.26518 | 106.50289 | 4765 ft | 196 kts | 8° |
| 2026-05-06 09:22 | 29.27877 | 106.50573 | 4754 ft | 196 kts | 8° |
| 2026-05-06 09:22 | 29.29237 | 106.50859 | 4785 ft | 194 kts | 7° |
| 2026-05-06 09:23 | 29.30570 | 106.51131 | 4827 ft | 194 kts | 7° |
| 2026-05-06 09:23 | 29.31911 | 106.51399 | 4803 ft | 195 kts | 7° |
| 2026-05-06 09:23 | 29.33260 | 106.51665 | 4782 ft | 194 kts | 7° |
| 2026-05-06 09:23 | 29.34599 | 106.51932 | 4770 ft | 194 kts | 7° |
| 2026-05-06 09:24 | 29.35947 | 106.52169 | 4759 ft | 193 kts | 4° |
| 2026-05-06 09:24 | 29.37299 | 106.52373 | 4762 ft | 195 kts | 7° |
| 2026-05-06 09:24 | 29.38638 | 106.52697 | 4768 ft | 194 kts | 11° |
| 2026-05-06 09:24 | 29.39937 | 106.53091 | 4759 ft | 195 kts | 13° |
| 2026-05-06 09:25 | 29.41259 | 106.53521 | 4764 ft | 195 kts | 14° |
| 2026-05-06 09:25 | 29.42578 | 106.53963 | 4765 ft | 195 kts | 14° |
| 2026-05-06 09:25 | 29.43890 | 106.54410 | 4768 ft | 194 kts | 14° |
| 2026-05-06 09:25 | 29.45189 | 106.54857 | 4761 ft | 193 kts | 14° |
| 2026-05-06 09:26 | 29.46485 | 106.55308 | 4769 ft | 194 kts | 15° |
| 2026-05-06 09:26 | 29.47781 | 106.55760 | 4763 ft | 194 kts | 14° |
| 2026-05-06 09:26 | 29.49074 | 106.56210 | 4772 ft | 194 kts | 15° |
| 2026-05-06 09:26 | 29.50349 | 106.56657 | 4771 ft | 195 kts | 14° |
| 2026-05-06 09:27 | 29.51646 | 106.57109 | 4774 ft | 194 kts | 15° |
| 2026-05-06 09:27 | 29.52932 | 106.57557 | 4777 ft | 193 kts | 15° |
| 2026-05-06 09:27 | 29.54211 | 106.58004 | 4641 ft | 189 kts | 14° |
| 2026-05-06 09:27 | 29.55460 | 106.58439 | 4369 ft | 185 kts | 15° |
| 2026-05-06 09:28 | 29.56657 | 106.58855 | 4096 ft | 175 kts | 16° |
| 2026-05-06 09:28 | 29.57791 | 106.59250 | 3865 ft | 165 kts | 16° |
| 2026-05-06 09:28 | 29.58857 | 106.59620 | 3654 ft | 161 kts | 17° |
| 2026-05-06 09:28 | 29.59929 | 106.59993 | 3425 ft | 160 kts | 17° |
| 2026-05-06 09:29 | 29.60996 | 106.60365 | 3231 ft | 160 kts | 17° |
| 2026-05-06 09:29 | 29.62041 | 106.60727 | 3041 ft | 153 kts | 18° |
| 2026-05-06 09:29 | 29.63053 | 106.61078 | 2856 ft | 150 kts | 18° |
| 2026-05-06 09:29 | 29.64058 | 106.61429 | 2691 ft | 151 kts | 18° |
| 2026-05-06 09:30 | 29.65062 | 106.61780 | 2479 ft | 152 kts | 17° |
| 2026-05-06 09:30 | 29.66071 | 106.62131 | 2266 ft | 150 kts | 17° |
| 2026-05-06 09:30 | 29.67074 | 106.62479 | 2068 ft | 152 kts | 17° |
| 2026-05-06 09:30 | 29.68094 | 106.62834 | 1886 ft | 157 kts | 16° |
| 2026-05-06 09:31 | 29.69134 | 106.63195 | 1697 ft | 156 kts | 14° |
| 2026-05-06 09:31 | 29.70193 | 106.63562 | 1458 ft | 157 kts | 14° |
| 2026-05-06 09:31 | 29.71222 | 106.63917 | 1367 ft | 139 kts | 16° |
| 2026-05-06 09:31 | 29.71966 | 106.64165 | 1369 ft | 86 kts | 16° |
| 2026-05-06 09:32 | 29.72347 | 106.64358 | 1368 ft | 37 kts | 42° |
| 2026-05-06 09:32 | 29.72452 | 106.64478 | 1367 ft | 18 kts | 46° |
| 2026-05-06 09:32 | 29.72520 | 106.64602 | 1366 ft | 20 kts | 76° |
| 2026-05-06 09:32 | 29.72500 | 106.64705 | 1365 ft | 9 kts | 120° |
| 2026-05-06 09:33 | 29.72495 | 106.64714 | 1366 ft | 0 kts | 120° |
| 2026-05-06 09:33 | 29.72492 | 106.64720 | 1366 ft | 4 kts | 120° |
| 2026-05-06 09:34 | 29.72471 | 106.64770 | 1365 ft | 9 kts | 112° |
| 2026-05-06 09:34 | 29.72446 | 106.64848 | 1366 ft | 12 kts | 107° |
| 2026-05-06 09:34 | 29.72394 | 106.64923 | 1366 ft | 14 kts | 165° |
| 2026-05-06 09:34 | 29.72295 | 106.64896 | 1365 ft | 16 kts | 195° |
| 2026-05-06 09:35 | 29.72179 | 106.64861 | 1365 ft | 18 kts | 194° |
| 2026-05-06 09:35 | 29.72050 | 106.64819 | 1365 ft | 21 kts | 197° |
| 2026-05-06 09:35 | 29.71906 | 106.64768 | 1365 ft | 23 kts | 197° |
| 2026-05-06 09:35 | 29.71748 | 106.64715 | 1365 ft | 24 kts | 196° |
| 2026-05-06 09:36 | 29.71585 | 106.64655 | 1365 ft | 20 kts | 199° |
| 2026-05-06 09:36 | 29.71531 | 106.64634 | 1367 ft | 7 kts | 198° |
| 2026-05-06 09:36 | 29.71484 | 106.64616 | 1367 ft | 11 kts | 197° |
| 2026-05-06 09:36 | 29.71385 | 106.64625 | 1366 ft | 16 kts | 129° |
| 2026-05-06 09:37 | 29.71350 | 106.64756 | 1365 ft | 17 kts | 107° |
| 2026-05-06 09:37 | 29.71321 | 106.64845 | 1363 ft | 13 kts | 116° |
| 2026-05-06 09:37 | 29.71303 | 106.64884 | 1365 ft | 0 kts | 118° |